createdAt,value
2019-05-06T00:01:47.997Z,99.90
2019-05-06T00:04:18.443Z,99.90
2019-05-06T00:06:48.848Z,99.90
2019-05-06T00:09:19.457Z,99.90
2019-05-06T00:11:51.612Z,99.90
2019-05-06T00:14:23.524Z,99.90
2019-05-06T00:16:55.729Z,99.90
2019-05-06T00:19:26.579Z,99.90
2019-05-06T00:21:58.099Z,99.90
2019-05-06T00:24:34.790Z,99.90
2019-05-06T00:27:14.129Z,99.90
2019-05-06T00:29:46.915Z,99.90
2019-05-06T00:32:17.620Z,99.90
2019-05-06T00:34:48.303Z,99.90
2019-05-06T00:37:18.964Z,99.90
2019-05-06T00:39:57.776Z,99.90
2019-05-06T00:42:30.587Z,99.90
2019-05-06T00:45:01.120Z,99.90
2019-05-06T00:47:34.017Z,99.90
2019-05-06T00:50:05.781Z,99.90
2019-05-06T00:52:37.196Z,99.90
2019-05-06T00:55:07.876Z,99.90
2019-05-06T00:57:44.505Z,99.90
2019-05-06T01:00:24.243Z,99.90
2019-05-06T01:02:54.385Z,99.90
2019-05-06T01:05:25.142Z,99.90
2019-05-06T01:07:55.671Z,99.90
2019-05-06T01:10:27.123Z,99.90
2019-05-06T01:13:04.270Z,99.90
2019-05-06T01:15:35.184Z,99.90
2019-05-06T01:18:06.251Z,99.90
2019-05-06T01:20:37.008Z,99.90
2019-05-06T01:23:08.472Z,99.90
2019-05-06T01:25:39.042Z,99.90
2019-05-06T01:28:09.569Z,99.90
2019-05-06T01:30:40.120Z,99.90
2019-05-06T01:33:11.595Z,99.90
2019-05-06T01:35:44.220Z,99.90
2019-05-06T01:38:40.121Z,99.90
2019-05-06T01:41:19.749Z,99.90
2019-05-06T01:43:50.279Z,99.90
2019-05-06T01:46:20.839Z,99.90
2019-05-06T01:48:53.459Z,99.90
2019-05-06T01:51:24.273Z,99.90
2019-05-06T01:53:54.862Z,99.90
2019-05-06T01:56:25.460Z,99.90
2019-05-06T01:58:57.440Z,99.90
2019-05-06T02:01:28.088Z,99.90
2019-05-06T02:03:58.595Z,99.90
2019-05-06T02:06:29.116Z,99.90
2019-05-06T02:08:59.616Z,99.90
2019-05-06T02:11:30.106Z,99.90
2019-05-06T02:14:01.533Z,99.90
2019-05-06T02:16:34.095Z,99.90
2019-05-06T02:19:04.378Z,99.90
2019-05-06T02:21:55.300Z,99.90
2019-05-06T02:24:30.589Z,99.90
2019-05-06T02:27:01.253Z,99.90
2019-05-06T02:29:34.297Z,99.90
2019-05-06T02:32:38.955Z,99.90
2019-05-06T02:35:34.710Z,99.90
2019-05-06T02:38:25.817Z,99.90
2019-05-06T02:40:54.828Z,99.90
2019-05-06T02:43:25.316Z,99.90
2019-05-06T02:45:55.861Z,99.90
2019-05-06T02:48:37.100Z,99.90
2019-05-06T02:51:13.145Z,99.90
2019-05-06T02:53:43.927Z,99.90
2019-05-06T02:56:14.492Z,99.90
2019-05-06T02:58:45.067Z,99.90
2019-05-06T03:01:15.595Z,99.90
2019-05-06T03:03:46.153Z,99.90
2019-05-06T03:06:16.621Z,99.90
2019-05-06T03:08:47.152Z,99.90
2019-05-06T03:11:17.785Z,99.90
2019-05-06T03:13:48.260Z,99.90
2019-05-06T03:16:23.525Z,99.90
2019-05-06T03:18:53.405Z,99.90
2019-05-06T03:21:44.897Z,99.90
2019-05-06T03:24:37.559Z,99.90
2019-05-06T03:27:08.249Z,99.90
2019-05-06T03:29:38.764Z,99.90
2019-05-06T03:32:09.388Z,99.90
2019-05-06T03:35:01.132Z,99.90
2019-05-06T03:37:16.924Z,99.90
2019-05-06T03:39:44.391Z,99.90
2019-05-06T03:42:16.726Z,99.90
2019-05-06T03:44:53.189Z,99.90
2019-05-06T03:47:44.827Z,99.90
2019-05-06T03:50:16.520Z,99.90
2019-05-06T03:52:47.073Z,99.90
2019-05-06T03:55:17.585Z,99.90
2019-05-06T03:57:48.914Z,99.90
2019-05-06T04:00:19.470Z,99.90
2019-05-06T04:02:53.394Z,99.90
2019-05-06T04:05:23.858Z,99.90
2019-05-06T04:07:55.309Z,99.90
2019-05-06T04:10:25.791Z,99.90
2019-05-06T04:12:57.843Z,99.90
2019-05-06T04:15:53.791Z,99.90
2019-05-06T04:18:24.703Z,99.90
2019-05-06T04:21:03.747Z,99.90
2019-05-06T04:23:43.849Z,99.90
2019-05-06T04:26:26.702Z,99.90
2019-05-06T04:28:57.914Z,99.90
2019-05-06T04:31:28.525Z,99.90
2019-05-06T04:34:09.969Z,99.90
2019-05-06T04:36:33.635Z,99.90
2019-05-06T04:39:04.493Z,99.90
2019-05-06T04:41:36.361Z,99.90
2019-05-06T04:44:06.943Z,99.90
2019-05-06T04:46:38.262Z,99.90
2019-05-06T04:49:14.095Z,99.90
2019-05-06T04:51:43.202Z,99.90
2019-05-06T04:54:14.104Z,99.90
2019-05-06T04:56:44.893Z,99.90
2019-05-06T04:59:16.053Z,99.90
2019-05-06T05:01:46.498Z,99.90
2019-05-06T05:04:28.197Z,99.90
2019-05-06T05:06:49.388Z,99.90
2019-05-06T05:09:19.961Z,99.90
2019-05-06T05:12:06.836Z,99.90
2019-05-06T05:14:51.932Z,99.90
2019-05-06T05:17:48.987Z,99.90
2019-05-06T05:20:35.906Z,99.90
2019-05-06T05:22:52.869Z,99.90
2019-05-06T05:25:33.052Z,99.90
2019-05-06T05:28:03.675Z,99.90
2019-05-06T05:30:34.408Z,99.90
2019-05-06T05:33:05.149Z,99.90
2019-05-06T05:35:35.816Z,99.90
2019-05-06T05:38:06.991Z,99.90
2019-05-06T05:40:38.648Z,99.90
2019-05-06T05:43:27.420Z,99.90
2019-05-06T05:46:10.060Z,99.90
2019-05-06T05:49:09.416Z,99.90
2019-05-06T05:51:42.462Z,99.90
2019-05-06T05:54:12.562Z,99.90
2019-05-06T05:56:43.205Z,99.90
2019-05-06T05:59:14.897Z,99.90
2019-05-06T06:01:45.470Z,99.90
2019-05-06T06:04:16.974Z,99.90
2019-05-06T06:06:48.344Z,99.90
2019-05-06T06:09:22.280Z,99.90
2019-05-06T06:11:54.272Z,99.90
2019-05-06T06:14:47.499Z,99.90
2019-05-06T06:17:32.522Z,99.90
2019-05-06T06:20:22.351Z,99.90
2019-05-06T06:22:53.938Z,99.90
2019-05-06T06:25:25.756Z,99.90
2019-05-06T06:27:56.277Z,99.90
2019-05-06T06:30:43.807Z,99.90
2019-05-06T06:33:14.560Z,99.90
2019-05-06T06:36:04.291Z,99.90
2019-05-06T06:38:56.972Z,99.90
2019-05-06T06:41:27.646Z,99.90
2019-05-06T06:44:02.658Z,99.90
2019-05-06T06:46:33.348Z,99.90
2019-05-06T06:49:03.945Z,99.90
2019-05-06T06:51:34.570Z,99.90
2019-05-06T06:54:06.001Z,99.90
2019-05-06T06:57:05.557Z,99.90
2019-05-06T06:59:34.451Z,99.90
2019-05-06T07:02:28.093Z,99.90
2019-05-06T07:05:28.504Z,99.90
2019-05-06T07:08:02.195Z,99.90
2019-05-06T07:10:45.105Z,99.90
2019-05-06T07:13:18.289Z,99.90
2019-05-06T07:15:48.851Z,99.90
2019-05-06T07:18:19.680Z,99.90
2019-05-06T07:21:08.394Z,99.90
2019-05-06T07:23:39.129Z,99.90
2019-05-06T07:26:12.154Z,99.90
2019-05-06T07:28:43.704Z,99.90
2019-05-06T07:31:22.223Z,99.90
2019-05-06T07:33:47.408Z,99.90
2019-05-06T07:36:20.130Z,99.90
2019-05-06T07:38:52.362Z,99.90
2019-05-06T07:41:28.505Z,99.90
2019-05-06T07:44:33.200Z,99.90
2019-05-06T07:47:15.767Z,99.90
2019-05-06T07:49:47.520Z,99.90
2019-05-06T07:52:18.082Z,99.90
2019-05-06T07:54:48.754Z,99.90
2019-05-06T07:57:22.008Z,99.90
2019-05-06T07:59:52.838Z,99.50
2019-05-06T08:02:24.418Z,99.90
2019-05-06T08:04:54.919Z,98.70
2019-05-06T08:07:25.590Z,99.50
2019-05-06T08:10:01.941Z,95.40
2019-05-06T08:12:32.664Z,95.70
2019-05-06T08:15:05.232Z,92.20
2019-05-06T08:17:42.116Z,90.50
2019-05-06T08:20:13.191Z,91.40
2019-05-06T08:23:05.852Z,92.30
2019-05-06T08:25:45.648Z,96.70
2019-05-06T08:28:16.304Z,92.50
2019-05-06T08:30:46.990Z,94.30
2019-05-06T08:33:17.720Z,95.50
2019-05-06T08:35:48.408Z,94.70
2019-05-06T08:38:19.104Z,91.90
2019-05-06T08:40:49.719Z,91.90
2019-05-06T08:43:21.979Z,92.60
2019-05-06T08:45:53.464Z,94.30
2019-05-06T08:48:24.031Z,95.50
2019-05-06T08:51:02.779Z,95.00
2019-05-06T08:53:55.467Z,93.40
2019-05-06T08:56:26.053Z,90.50
2019-05-06T08:58:56.609Z,87.50
2019-05-06T09:01:53.406Z,90.70
2019-05-06T09:04:23.713Z,83.60
2019-05-06T09:06:55.001Z,86.70
2019-05-06T09:09:27.030Z,86.90
2019-05-06T09:11:57.632Z,82.30
2019-05-06T09:14:28.323Z,82.90
2019-05-06T09:16:58.952Z,87.30
2019-05-06T09:19:29.512Z,79.30
2019-05-06T09:22:02.358Z,81.90
2019-05-06T09:24:32.548Z,87.70
2019-05-06T09:27:12.139Z,91.90
2019-05-06T09:29:53.868Z,92.40
2019-05-06T09:32:28.803Z,94.70
2019-05-06T09:35:02.738Z,97.70
2019-05-06T09:37:32.866Z,96.30
2019-05-06T09:40:03.964Z,94.60
2019-05-06T09:42:35.699Z,89.00
2019-05-06T09:45:07.488Z,80.10
2019-05-06T09:48:03.600Z,86.70
2019-05-06T09:50:38.196Z,86.60
2019-05-06T09:53:13.182Z,86.10
2019-05-06T09:56:06.466Z,90.90
2019-05-06T09:58:42.776Z,89.00
2019-05-06T10:01:14.432Z,86.00
2019-05-06T10:03:45.064Z,81.90
2019-05-06T10:06:15.782Z,82.70
2019-05-06T10:08:46.325Z,83.60
2019-05-06T10:11:17.540Z,76.00
2019-05-06T10:13:48.226Z,72.10
2019-05-06T10:16:18.897Z,70.60
2019-05-06T10:18:49.488Z,71.70
2019-05-06T10:21:20.123Z,74.20
2019-05-06T10:23:52.730Z,73.10
2019-05-06T10:26:23.465Z,73.00
2019-05-06T10:29:02.322Z,67.30
2019-05-06T10:31:39.391Z,70.00
2019-05-06T10:34:14.011Z,71.90
2019-05-06T10:36:53.298Z,71.30
2019-05-06T10:39:27.424Z,68.70
2019-05-06T10:42:13.211Z,75.00
2019-05-06T10:45:27.237Z,78.60
2019-05-06T10:47:59.656Z,82.10
2019-05-06T10:50:33.724Z,82.60
2019-05-06T10:53:16.697Z,86.10
2019-05-06T10:56:02.136Z,85.30
2019-05-06T10:58:32.835Z,87.50
2019-05-06T11:01:17.273Z,84.30
2019-05-06T11:04:04.888Z,85.00
2019-05-06T11:06:36.448Z,84.80
2019-05-06T11:09:10.528Z,87.80
2019-05-06T11:11:42.818Z,90.00
2019-05-06T11:14:13.589Z,89.40
2019-05-06T11:16:44.247Z,90.10
2019-05-06T11:19:14.901Z,94.00
2019-05-06T11:21:45.468Z,96.80
2019-05-06T11:24:17.840Z,96.60
2019-05-06T11:26:48.387Z,98.10
2019-05-06T11:29:24.578Z,94.50
2019-05-06T11:32:07.032Z,93.00
2019-05-06T11:34:42.867Z,98.40
2019-05-06T11:37:50.163Z,99.90
2019-05-06T11:40:18.081Z,95.90
2019-05-06T11:42:48.652Z,96.60
2019-05-06T11:45:19.472Z,95.30
2019-05-06T11:47:50.056Z,94.40
2019-05-06T11:50:21.968Z,91.50
2019-05-06T11:52:55.818Z,88.10
2019-05-06T11:55:32.718Z,81.20
2019-05-06T11:58:22.384Z,85.50
2019-05-06T12:00:53.822Z,80.50
2019-05-06T12:03:25.208Z,81.40
2019-05-06T12:06:03.858Z,83.90
2019-05-06T12:08:35.759Z,84.80
2019-05-06T12:11:12.790Z,87.60
2019-05-06T12:13:45.070Z,86.30
2019-05-06T12:16:16.844Z,85.80
2019-05-06T12:18:47.457Z,86.40
2019-05-06T12:21:19.267Z,84.30
2019-05-06T12:23:50.240Z,86.00
2019-05-06T12:26:20.945Z,87.30
2019-05-06T12:28:53.497Z,88.80
2019-05-06T12:31:24.033Z,89.60
2019-05-06T12:33:54.518Z,90.60
2019-05-06T12:36:25.171Z,92.10
2019-05-06T12:39:15.694Z,93.90
2019-05-06T12:42:06.065Z,94.10
2019-05-06T12:44:38.056Z,96.10
2019-05-06T12:47:32.805Z,99.10
2019-05-06T12:50:03.036Z,99.10
2019-05-06T12:52:33.448Z,99.90
2019-05-06T12:55:17.069Z,99.90
2019-05-06T12:57:36.862Z,99.90
2019-05-06T13:00:07.865Z,99.90
2019-05-06T13:02:38.552Z,99.90
2019-05-06T13:05:09.230Z,99.90
2019-05-06T13:07:46.133Z,99.90
2019-05-06T13:10:19.723Z,99.90
2019-05-06T13:12:58.244Z,99.90
2019-05-06T13:15:28.937Z,99.90
2019-05-06T13:17:59.579Z,99.90
2019-05-06T13:20:34.982Z,99.90
2019-05-06T13:23:27.607Z,99.90
2019-05-06T13:25:58.140Z,99.90
2019-05-06T13:28:33.267Z,99.90
2019-05-06T13:31:15.739Z,99.90
2019-05-06T13:33:45.376Z,99.90
2019-05-06T13:36:16.002Z,99.90
2019-05-06T13:38:46.604Z,99.90
2019-05-06T13:41:17.126Z,99.90
2019-05-06T13:43:56.236Z,99.90
2019-05-06T13:46:29.515Z,99.90
2019-05-06T13:49:17.719Z,99.90
2019-05-06T13:51:55.260Z,99.90
2019-05-06T13:54:25.890Z,99.90
2019-05-06T13:56:56.478Z,99.90
2019-05-06T13:59:30.152Z,99.90
2019-05-06T14:02:18.769Z,99.90
2019-05-06T14:04:52.477Z,99.90
2019-05-06T14:07:24.275Z,99.90
2019-05-06T14:09:54.012Z,99.90
2019-05-06T14:12:25.737Z,99.90
2019-05-06T14:14:57.269Z,99.90
2019-05-06T14:17:27.723Z,99.90
2019-05-06T14:19:58.786Z,99.90
2019-05-06T14:22:29.362Z,99.90
2019-05-06T14:25:23.322Z,99.90
2019-05-06T14:27:58.727Z,99.90
2019-05-06T14:30:47.456Z,99.90
2019-05-06T14:33:20.375Z,99.90
2019-05-06T14:35:52.618Z,99.90
2019-05-06T14:38:24.527Z,99.90
2019-05-06T14:41:13.139Z,99.90
2019-05-06T14:43:44.988Z,99.90
2019-05-06T14:46:15.604Z,99.90
2019-05-06T14:48:46.165Z,99.90
2019-05-06T14:51:16.797Z,99.90
2019-05-06T14:53:47.301Z,99.90
2019-05-06T14:56:38.412Z,99.90
2019-05-06T14:59:09.580Z,99.90
2019-05-06T15:01:45.131Z,99.90
2019-05-06T15:04:13.069Z,99.90
2019-05-06T15:06:43.705Z,99.90
2019-05-06T15:09:14.423Z,99.90
2019-05-06T15:11:45.148Z,99.90
2019-05-06T15:14:15.773Z,99.90
2019-05-06T15:16:46.396Z,99.90
2019-05-06T15:19:17.068Z,99.90
2019-05-06T15:21:47.896Z,99.90
2019-05-06T15:24:21.236Z,99.90
2019-05-06T15:26:52.715Z,99.90
2019-05-06T15:29:23.829Z,99.90
2019-05-06T15:32:13.888Z,99.90
2019-05-06T15:34:59.556Z,99.90
2019-05-06T15:37:36.132Z,99.90
2019-05-06T15:40:07.601Z,99.90
2019-05-06T15:42:38.211Z,99.90
2019-05-06T15:45:21.880Z,99.90
2019-05-06T15:47:52.713Z,99.90
2019-05-06T15:50:23.403Z,99.90
2019-05-06T15:52:54.124Z,99.90
2019-05-06T15:55:24.607Z,99.90
2019-05-06T15:57:56.279Z,99.90
2019-05-06T16:00:27.097Z,99.90
2019-05-06T16:02:58.419Z,99.90
2019-05-06T16:05:30.884Z,99.90
2019-05-06T16:08:02.937Z,99.90
2019-05-06T16:10:50.971Z,99.90
2019-05-06T16:13:05.935Z,99.90
2019-05-06T16:15:37.773Z,99.90
2019-05-06T16:18:09.181Z,99.90
2019-05-06T16:20:39.742Z,99.90
2019-05-06T16:23:20.127Z,99.90
2019-05-06T16:25:52.403Z,99.90
2019-05-06T16:28:23.280Z,99.90
2019-05-06T16:30:53.905Z,99.90
2019-05-06T16:33:25.483Z,99.90
2019-05-06T16:35:56.047Z,99.90
2019-05-06T16:38:26.536Z,99.90
2019-05-06T16:41:09.397Z,99.90
2019-05-06T16:43:29.268Z,99.90
2019-05-06T16:45:59.891Z,99.90
2019-05-06T16:48:30.524Z,99.90
2019-05-06T16:51:04.520Z,99.90
2019-05-06T16:53:35.166Z,99.90
2019-05-06T16:56:22.133Z,99.90
2019-05-06T16:58:55.338Z,99.90
2019-05-06T17:01:25.820Z,99.90
2019-05-06T17:04:03.235Z,99.90
2019-05-06T17:06:36.159Z,99.90
2019-05-06T17:09:18.422Z,99.90
2019-05-06T17:11:42.659Z,99.90
2019-05-06T17:14:13.358Z,99.90
2019-05-06T17:16:44.816Z,99.90
2019-05-06T17:19:15.237Z,99.90
2019-05-06T17:21:48.292Z,99.90
2019-05-06T17:24:18.148Z,99.90
2019-05-06T17:26:48.596Z,99.90
2019-05-06T17:29:36.916Z,99.90
2019-05-06T17:32:26.583Z,99.90
2019-05-06T17:34:57.901Z,99.90
2019-05-06T17:37:48.477Z,99.90
2019-05-06T17:40:23.001Z,99.90
2019-05-06T17:42:54.859Z,99.90
2019-05-06T17:45:59.323Z,99.90
2019-05-06T17:48:39.021Z,99.90
2019-05-06T17:51:13.464Z,99.90
2019-05-06T17:53:46.244Z,99.90
2019-05-06T17:56:16.871Z,99.90
2019-05-06T17:58:47.424Z,99.90
2019-05-06T18:01:23.254Z,99.90
2019-05-06T18:03:54.007Z,99.90
2019-05-06T18:06:24.735Z,99.90
2019-05-06T18:08:55.415Z,99.90
2019-05-06T18:11:27.793Z,99.90
2019-05-06T18:13:59.144Z,99.90
2019-05-06T18:16:32.970Z,99.90
2019-05-06T18:19:05.888Z,99.90
2019-05-06T18:21:40.536Z,99.90
2019-05-06T18:24:18.693Z,99.90
2019-05-06T18:26:54.456Z,99.90
2019-05-06T18:29:27.035Z,99.90
2019-05-06T18:31:59.129Z,99.90
2019-05-06T18:34:32.942Z,99.90
2019-05-06T18:37:04.919Z,99.90
2019-05-06T18:39:42.330Z,99.90
2019-05-06T18:42:20.136Z,99.90
2019-05-06T18:44:49.687Z,99.90
2019-05-06T18:47:22.188Z,99.90
2019-05-06T18:49:53.963Z,99.90
2019-05-06T18:52:25.470Z,99.90
2019-05-06T18:54:57.025Z,99.90
2019-05-06T18:57:32.834Z,99.90
2019-05-06T19:00:07.038Z,99.90
2019-05-06T19:02:42.371Z,99.90
2019-05-06T19:05:24.933Z,99.90
2019-05-06T19:07:56.026Z,99.90
2019-05-06T19:10:29.465Z,99.90
2019-05-06T19:13:03.095Z,99.90
2019-05-06T19:15:34.412Z,99.90
2019-05-06T19:18:06.050Z,99.90
2019-05-06T19:20:37.329Z,99.90
2019-05-06T19:23:13.031Z,99.90
2019-05-06T19:25:46.653Z,99.90
2019-05-06T19:28:22.002Z,99.90
2019-05-06T19:30:54.185Z,99.90
2019-05-06T19:33:24.907Z,99.90
2019-05-06T19:35:58.180Z,99.90
2019-05-06T19:38:36.948Z,99.90
2019-05-06T19:41:08.979Z,99.90
2019-05-06T19:43:40.240Z,99.90
2019-05-06T19:46:12.219Z,99.90
2019-05-06T19:48:43.929Z,99.90
2019-05-06T19:51:16.316Z,99.90
2019-05-06T19:53:46.851Z,99.90
2019-05-06T19:56:23.323Z,99.90
2019-05-06T19:58:58.008Z,99.90
2019-05-06T20:01:32.202Z,99.90
2019-05-06T20:04:05.797Z,99.90
2019-05-06T20:06:48.253Z,99.90
2019-05-06T20:09:46.297Z,99.90
2019-05-06T20:12:35.616Z,99.90
2019-05-06T20:15:34.214Z,99.90
2019-05-06T20:18:09.208Z,99.90
2019-05-06T20:20:45.220Z,99.90
2019-05-06T20:23:16.719Z,99.90
2019-05-06T20:25:51.961Z,99.90
2019-05-06T20:28:24.424Z,99.90
2019-05-06T20:30:56.364Z,99.90
2019-05-06T20:33:27.220Z,99.90
2019-05-06T20:36:06.079Z,99.90
2019-05-06T20:38:42.294Z,99.90
2019-05-06T20:41:13.139Z,99.90
2019-05-06T20:43:47.568Z,99.90
2019-05-06T20:46:22.492Z,99.90
2019-05-06T20:48:53.916Z,99.90
2019-05-06T20:51:25.704Z,99.90
2019-05-06T20:53:58.636Z,99.90
2019-05-06T20:56:32.757Z,99.90
2019-05-06T20:59:18.575Z,99.90
2019-05-06T21:01:55.620Z,99.90
2019-05-06T21:04:32.532Z,99.90
2019-05-06T21:07:05.686Z,99.90
2019-05-06T21:09:36.244Z,99.90
2019-05-06T21:12:06.873Z,99.90
2019-05-06T21:14:41.952Z,99.90
2019-05-06T21:17:12.543Z,99.90
2019-05-06T21:19:45.353Z,99.90
2019-05-06T21:22:17.197Z,99.90
2019-05-06T21:24:51.801Z,99.90
2019-05-06T21:27:24.427Z,99.90
2019-05-06T21:29:57.854Z,99.90
2019-05-06T21:32:29.167Z,99.90
2019-05-06T21:35:03.359Z,99.90
2019-05-06T21:37:36.293Z,99.90
2019-05-06T21:40:09.273Z,99.90
2019-05-06T21:42:43.143Z,99.90
2019-05-06T21:45:16.032Z,99.90
2019-05-06T21:47:46.640Z,99.90
2019-05-06T21:50:17.997Z,99.90
2019-05-06T21:52:50.509Z,99.90
2019-05-06T21:55:22.808Z,99.90
2019-05-06T21:57:57.220Z,99.90
2019-05-06T22:00:52.675Z,99.90
2019-05-06T22:03:36.667Z,99.90
2019-05-06T22:06:09.707Z,99.90
2019-05-06T22:08:42.484Z,99.90
2019-05-06T22:11:16.708Z,99.90
2019-05-06T22:14:01.669Z,99.90
2019-05-06T22:16:32.333Z,99.90
2019-05-06T22:19:08.722Z,99.90
2019-05-06T22:21:58.273Z,99.90
2019-05-06T22:24:42.700Z,99.90
2019-05-06T22:27:22.231Z,99.90
2019-05-06T22:29:55.263Z,99.90
2019-05-06T22:32:33.049Z,99.90
2019-05-06T22:35:05.391Z,99.90
2019-05-06T22:37:39.849Z,99.90
2019-05-06T22:40:15.643Z,99.90
2019-05-06T22:42:48.979Z,99.90
2019-05-06T22:45:22.261Z,99.90
2019-05-06T22:47:56.102Z,99.90
2019-05-06T22:50:28.452Z,99.90
2019-05-06T22:52:59.428Z,99.90
2019-05-06T22:55:32.925Z,99.90
2019-05-06T22:58:06.143Z,99.90
2019-05-06T23:00:53.552Z,99.90
2019-05-06T23:03:25.985Z,99.90
2019-05-06T23:05:58.160Z,99.90
2019-05-06T23:08:29.520Z,99.90
2019-05-06T23:11:04.080Z,99.90
2019-05-06T23:13:35.075Z,99.90
2019-05-06T23:16:08.712Z,99.90
2019-05-06T23:18:52.438Z,99.90
2019-05-06T23:21:24.244Z,99.90
2019-05-06T23:24:02.009Z,99.90
2019-05-06T23:26:34.302Z,99.90
2019-05-06T23:29:07.308Z,99.90
2019-05-06T23:31:42.424Z,99.90
2019-05-06T23:34:15.283Z,99.90
2019-05-06T23:37:24.403Z,99.90
2019-05-06T23:40:43.041Z,99.90
2019-05-06T23:43:51.402Z,99.90
2019-05-06T23:46:59.568Z,99.90
2019-05-06T23:50:12.458Z,99.90
2019-05-06T23:53:22.937Z,99.90
2019-05-06T23:56:32.660Z,99.90
2019-05-06T23:59:07.636Z,99.90
